Seaside, OR

7:29 AM PST on February 12, 2016 (GMT -0800)
APRSWXNET | | Change Station
CLOSE
Current Station
Personal Weather Station
Location: Cannon Beach, OR
Elevation: 22 ft
Nearby Weather Stations

Elev 22 ft 45.89 °N, 123.96 °W | Updated 21 minutes ago

Rain
Rain
53 °F
Feels Like 53 °F
N
15
Wind Variable Wind from SW
Gusts 25.0 mph

Today
High -- | Low -- °F
--% Chance of Precip.
Yesterday
High -- | Low -- °F
Precip. -- in
Pressure 30.08 in
Visibility 2.5 miles
Clouds Mostly Cloudy 900 ft
Overcast 1400 ft
Dew Point 52 °F
Humidity 95%
Rainfall in
Snow Depth Not available.
7:23 AM 5:36 PM
Waxing Crescent, 21% visible
SPECI KAST 121509Z AUTO 21010G22KT 2 1/2SM -RA BR BKN009 OVC014 12/11 A3008 RMK AO2 P0000 T01220111
Pressure 30.08 in
Visibility 2.5 miles
Clouds Mostly Cloudy 900 ft
Overcast 1400 ft
Dew Point 52 °F
Humidity 95%
Rainfall in
Snow Depth Not available.
7:23 AM 5:36 PM
Waxing Crescent, 21% visible
SPECI KAST 121509Z AUTO 21010G22KT 2 1/2SM -RA BR BKN009 OVC014 12/11 A3008 RMK AO2 P0000 T01220111

10-Day Weather Forecast

Almanac

Astronomy

Feb. 12, 2016 Rise Set
Actual Time
Civil Twilight
Nautical Twilight
Astronomical Twilight
Moon
Length of Visible Light
Length of Day
Tomorrow will be .
, % of the Moon is Illuminated

Today's Extremes

State Highs State Lows

Community

WunderPhotos

Upload Photos

1,892,329 photos uploaded!

WunderBlog® & News

Nearby

Air Quality

  Air Quality AQ Index Pollutant
Not available.

Snow Depth

Station Depth Elevation

Earthquake Activity

City Distance Mag. Time & Date
Minimum magnitude displayed is 2.5.

Coastal Water Temperatures

Place Temperature

Stations

Nearby Weather Stations

Station Location Temp. Windchill Dew Point Humidity Wind Precip. Elev Updated Type
                   

Watches & Warnings

There are currently no watches in effect.